Time;durP1;ratioP1;P1;durP2;ratioP2;P2;SDS_P1;SDS_P2;PMS_P1;PMS_P2;Temp;Humidity;BMP_temperature;BMP_pressure;BME280_temperature;BME280_humidity;BME280_pressure;Samples;Min_cycle;Max_cycle;Signal;HPM_P1;HPM_P2
2022/08/04 00:00:19;;;;;;;6.95;2.35;;;;;;;-148.88;66.71;74351.56;4922847;29;20034;-85
2022/08/04 00:03:10;;;;;;;9.30;2.80;;;;;;;-148.88;66.71;74351.56;4985931;28;20042;-84
2022/08/04 00:05:44;;;;;;;9.48;2.63;;;;;;;-148.88;66.74;74355.63;4997941;28;20088;-84
2022/08/04 00:08:25;;;;;;;11.98;2.72;;;;;;;-148.88;67.03;74351.56;4999292;28;20037;-85
2022/08/04 00:10:57;;;;;;;11.20;3.53;;;;;;;-148.88;66.94;74357.66;4998908;28;20026;-84
2022/08/04 00:13:24;;;;;;;15.40;3.10;;;;;;;-148.88;67.29;74355.63;4999059;28;20026;-84
2022/08/04 00:15:56;;;;;;;11.82;2.67;;;;;;;-148.88;67.61;74359.69;4999932;28;20093;-85
2022/08/04 00:18:28;;;;;;;12.63;2.90;;;;;;;-148.88;68.58;74384.06;4997849;28;20386;-85
2022/08/04 00:20:58;;;;;;;8.73;2.30;;;;;;;-148.88;68.61;74371.88;4998997;28;20045;-85
2022/08/04 00:23:25;;;;;;;9.32;2.70;;;;;;;-148.88;69.43;74384.06;4998020;28;20026;-84
2022/08/04 00:25:52;;;;;;;11.63;3.00;;;;;;;-148.88;69.88;74380.00;4997639;28;20026;-84
2022/08/04 00:28:18;;;;;;;10.23;3.10;;;;;;;-148.88;70.23;74384.06;4997728;28;20072;-85
2022/08/04 00:30:44;;;;;;;9.27;2.88;;;;;;;-148.88;70.35;74386.09;4996966;28;20030;-84
2022/08/04 00:33:10;;;;;;;13.68;3.00;;;;;;;-148.88;70.21;74384.06;4997297;28;20109;-84
2022/08/04 00:35:37;;;;;;;14.35;3.20;;;;;;;-148.88;70.59;74392.19;4997141;28;20062;-84
2022/08/04 00:38:03;;;;;;;10.45;3.33;;;;;;;-148.88;71.38;74392.19;4995938;28;20018;-84
2022/08/04 00:40:49;;;;;;;11.57;3.00;;;;;;;-148.88;71.13;74388.13;4997460;28;20025;-85
2022/08/04 00:43:31;;;;;;;11.43;3.72;;;;;;;-148.88;71.84;74392.19;4997236;28;20034;-85
2022/08/04 00:46:11;;;;;;;12.20;3.47;;;;;;;-148.88;72.06;74392.19;4997191;28;20018;-85
2022/08/04 00:48:56;;;;;;;10.07;3.42;;;;;;;-148.88;72.66;74398.28;5024193;23;20042;-87
2022/08/04 00:51:46;;;;;;;10.32;2.75;;;;;;;-148.88;72.75;74388.13;5035255;28;20026;-87
2022/08/04 00:54:35;;;;;;;9.35;3.03;;;;;;;-148.88;72.94;74394.22;5035176;28;20045;-87
2022/08/04 00:57:18;;;;;;;13.75;3.53;;;;;;;-148.88;73.09;74394.22;5006793;28;20091;-87
2022/08/04 01:00:07;;;;;;;;;;;;;;;-148.88;73.04;74396.25;5015763;28;20029;-87
2022/08/04 01:03:00;;;;;;;16.50;3.08;;;;;;;-148.88;73.43;74392.19;5014333;28;20264;-88
2022/08/04 01:05:44;;;;;;;12.38;3.50;;;;;;;-148.88;73.96;74396.25;5015243;28;20033;-87
2022/08/04 01:08:28;;;;;;;10.85;2.88;;;;;;;-148.88;73.47;74396.25;5014022;28;20030;-88
2022/08/04 01:11:26;;;;;;;10.70;3.20;;;;;;;-148.88;73.69;74396.25;5013628;28;20018;-88
2022/08/04 01:14:08;;;;;;;10.93;3.47;;;;;;;-148.88;73.80;74404.38;5015378;28;20105;-87
2022/08/04 01:16:41;;;;;;;9.95;2.92;;;;;;;-148.88;73.70;74404.38;5015077;28;20038;-87
2022/08/04 01:19:14;;;;;;;;;;;;;;;-148.88;74.01;74408.44;5015262;28;20032;-88
2022/08/04 01:21:56;;;;;;;11.68;3.63;;;;;;;-148.88;73.87;74416.53;5015110;28;19949;-87
2022/08/04 01:24:47;;;;;;;13.30;3.40;;;;;;;-148.88;74.00;74416.53;5014465;28;20384;-86
2022/08/04 01:27:37;;;;;;;8.35;2.97;;;;;;;-148.88;74.54;74420.59;5013518;28;20051;-88
2022/08/04 01:30:03;;;;;;;6.80;3.10;;;;;;;-148.88;74.57;74424.66;5014432;28;20095;-87
2022/08/04 01:32:36;;;;;;;9.20;3.40;;;;;;;-148.88;74.94;74426.69;5013672;28;20021;-88
2022/08/04 01:35:11;;;;;;;8.48;3.40;;;;;;;-148.88;74.88;74424.66;5014572;28;20124;-88
2022/08/04 01:37:53;;;;;;;17.83;3.35;;;;;;;-148.88;74.85;74432.78;5014295;28;20036;-88
2022/08/04 01:40:26;;;;;;;10.30;3.38;;;;;;;-148.88;74.78;74434.81;5013712;28;20022;-86
2022/08/04 01:42:52;;;;;;;11.90;3.50;;;;;;;-148.88;74.98;74440.91;5013760;28;20045;-88
2022/08/04 01:45:18;;;;;;;13.82;3.80;;;;;;;-148.88;75.05;74434.81;5014475;28;20033;-88
2022/08/04 01:47:54;;;;;;;9.70;3.38;;;;;;;-148.88;75.30;74444.97;5014359;28;20030;-88
2022/08/04 01:50:21;;;;;;;10.07;3.30;;;;;;;-148.88;75.87;74461.22;5014205;28;20030;-87
2022/08/04 01:52:47;;;;;;;12.02;3.90;;;;;;;-148.88;75.92;74469.34;5014365;28;20403;-87
2022/08/04 01:55:14;;;;;;;10.85;3.17;;;;;;;-148.88;75.86;74463.25;5014457;28;20037;-88
2022/08/04 01:57:43;;;;;;;9.23;3.03;;;;;;;-148.88;76.87;74477.47;5013171;28;20535;-87
2022/08/04 02:00:12;;;;;;;15.93;3.90;;;;;;;-148.88;77.98;74485.59;5014077;28;20508;-88
2022/08/04 02:02:38;;;;;;;15.00;3.72;;;;;;;-148.88;78.21;74487.63;5012724;28;20029;-87
2022/08/04 02:05:03;;;;;;;9.80;3.70;;;;;;;-148.88;78.53;74491.69;5012779;28;20025;-88
2022/08/04 02:07:44;;;;;;;7.63;3.20;;;;;;;-148.88;78.25;74483.56;5013973;28;20021;-88
2022/08/04 02:10:37;;;;;;;11.63;3.30;;;;;;;-148.88;78.57;74479.50;5013467;28;20029;-87
2022/08/04 02:13:23;;;;;;;10.52;3.72;;;;;;;-148.88;78.25;74481.53;5013938;28;20033;-88
2022/08/04 02:15:51;;;;;;;10.65;3.60;;;;;;;-148.88;78.53;74481.53;5014242;28;20026;-88
2022/08/04 02:18:23;;;;;;;9.20;3.80;;;;;;;-148.88;78.74;74485.59;5014642;28;20032;-88
2022/08/04 02:20:57;;;;;;;14.23;4.13;;;;;;;-148.88;78.89;74483.56;5013953;28;20061;-87
2022/08/04 02:23:48;;;;;;;11.32;3.90;;;;;;;-148.88;79.38;74485.59;5013997;28;20065;-88
2022/08/04 02:26:18;;;;;;;12.02;3.67;;;;;;;-148.88;79.23;74485.59;5013712;28;20076;-87
2022/08/04 02:29:07;;;;;;;10.68;3.75;;;;;;;-148.88;79.34;74485.59;5014018;28;20029;-87
2022/08/04 02:31:46;;;;;;;10.75;3.50;;;;;;;-148.88;79.27;74487.63;5012891;28;20021;-89
2022/08/04 02:34:16;;;;;;;7.53;3.78;;;;;;;-148.88;79.21;74489.66;5012829;28;20022;-88
2022/08/04 02:36:42;;;;;;;7.53;3.03;;;;;;;-148.88;79.35;74485.59;5013501;28;20036;-87
2022/08/04 02:39:10;;;;;;;13.32;3.35;;;;;;;-148.88;79.40;74493.72;5013326;28;20030;-87
2022/08/04 02:41:38;;;;;;;10.90;3.38;;;;;;;-148.88;80.78;74493.72;5013613;28;20025;-87
2022/08/04 02:44:09;;;;;;;10.65;3.60;;;;;;;-148.88;80.76;74493.72;5012158;28;20041;-87
2022/08/04 02:46:36;;;;;;;9.82;3.70;;;;;;;-148.88;81.19;74489.66;5013508;28;20104;-88
2022/08/04 02:49:06;;;;;;;10.63;3.40;;;;;;;-148.88;81.83;74493.72;5013105;28;20515;-88
2022/08/04 02:51:46;;;;;;;10.98;4.15;;;;;;;-148.88;81.93;74491.69;5011921;28;20176;-86
2022/08/04 02:54:16;;;;;;;10.20;3.15;;;;;;;-148.88;81.78;74497.78;5013168;28;20129;-88
2022/08/04 02:56:44;;;;;;;10.95;3.45;;;;;;;-148.88;82.13;74491.69;5012043;28;20022;-88
2022/08/04 02:59:11;;;;;;;10.10;3.85;;;;;;;-148.88;82.39;74497.78;5011555;28;20021;-87
2022/08/04 03:01:36;;;;;;;11.98;3.70;;;;;;;-148.88;82.27;74499.81;5013049;28;20022;-87
2022/08/04 03:04:30;;;;;;;10.60;3.80;;;;;;;-148.88;82.69;74499.81;5011851;28;20028;-88
2022/08/04 03:07:14;;;;;;;11.80;4.00;;;;;;;-148.88;82.92;74503.84;5012520;28;20022;-87
2022/08/04 03:10:12;;;;;;;9.35;3.72;;;;;;;-148.88;83.06;74507.91;5013365;28;20026;-87
2022/08/04 03:13:39;;;;;;;11.85;3.95;;;;;;;-148.88;83.35;74514.00;5013309;28;20389;-87
2022/08/04 03:16:26;;;;;;;12.30;3.75;;;;;;;-148.88;83.25;74514.00;4963103;28;20178;-87
2022/08/04 03:19:00;;;;;;;10.57;4.05;;;;;;;-148.88;83.89;74518.06;5012986;28;20030;-87
2022/08/04 03:21:47;;;;;;;8.95;3.53;;;;;;;-148.88;83.84;74520.09;5012490;28;20030;-87
2022/08/04 03:24:50;;;;;;;12.02;4.45;;;;;;;-148.88;85.30;74538.38;5012456;28;20017;-87
2022/08/04 03:27:31;;;;;;;11.90;3.85;;;;;;;-148.88;85.54;74534.31;5010200;28;20038;-88
2022/08/04 03:29:59;;;;;;;9.70;3.70;;;;;;;-148.88;85.59;74540.41;5013116;28;20037;-88
2022/08/04 03:33:01;;;;;;;15.70;4.65;;;;;;;-148.88;86.04;74548.53;5011945;28;20472;-87
2022/08/04 03:35:42;;;;;;;12.82;4.07;;;;;;;-148.88;86.23;74548.53;5013202;28;20548;-87
2022/08/04 03:38:10;;;;;;;14.90;4.43;;;;;;;-148.88;86.17;74554.63;5013999;28;20030;-87
2022/08/04 03:40:44;;;;;;;14.80;4.13;;;;;;;-148.88;86.69;74560.72;5014024;28;20029;-87
2022/08/04 03:43:26;;;;;;;10.18;3.78;;;;;;;-148.88;86.95;74558.69;5012001;28;20025;-87
2022/08/04 03:46:24;;;;;;;12.37;4.33;;;;;;;-148.88;86.79;74564.78;5029317;28;20041;-86
2022/08/04 03:49:01;;;;;;;11.25;4.82;;;;;;;-148.88;87.42;74570.88;5034070;28;20098;-88
2022/08/04 03:55:14;;;;;;;10.65;4.35;;;;;;;-148.88;87.77;74574.94;5013826;28;20049;-87
2022/08/04 03:58:17;;;;;;;14.43;4.05;;;;;;;-148.88;87.93;74581.03;5014269;28;20029;-86
2022/08/04 04:01:03;;;;;;;10.30;4.35;;;;;;;-148.88;88.80;74599.28;5011590;28;20439;-87
2022/08/04 04:03:54;;;;;;;13.25;3.92;;;;;;;-148.88;89.00;74595.25;5015132;28;20048;-87
2022/08/04 04:06:48;;;;;;;11.32;4.75;;;;;;;-148.88;89.18;74595.25;5015701;28;20022;-86
2022/08/04 04:09:53;;;;;;;10.52;4.55;;;;;;;-148.88;89.56;74595.25;5016215;28;20037;-90
2022/08/04 04:12:42;;;;;;;12.23;4.95;;;;;;;-148.88;89.21;74593.22;5016847;28;20022;-88
2022/08/04 04:15:39;;;;;;;10.80;4.82;;;;;;;-148.88;89.69;74599.28;5016140;28;20022;-89
2022/08/04 04:18:11;;;;;;;10.23;4.38;;;;;;;-148.88;89.60;74599.28;5015458;28;20026;-88
2022/08/04 04:20:53;;;;;;;8.55;4.30;;;;;;;-148.88;89.93;74595.25;5016798;28;20028;-87
2022/08/04 04:23:30;;;;;;;13.63;4.82;;;;;;;-148.88;89.78;74601.31;5015113;28;20120;-89
2022/08/04 04:26:16;;;;;;;12.25;5.05;;;;;;;-148.88;90.05;74599.28;5016024;28;20109;-90
2022/08/04 04:29:03;;;;;;;12.73;4.97;;;;;;;-148.88;90.19;74595.25;5017020;28;20080;-90
2022/08/04 04:31:35;;;;;;;11.50;5.05;;;;;;;-148.88;90.28;74595.25;5015457;28;20064;-88
2022/08/04 04:34:28;;;;;;;11.60;4.80;;;;;;;-148.88;90.21;74595.25;5015400;28;20022;-87
2022/08/04 04:37:28;;;;;;;14.85;4.65;;;;;;;-148.88;90.24;74595.25;5016475;28;20096;-86
2022/08/04 04:40:11;;;;;;;7.47;4.47;;;;;;;-148.88;90.32;74591.19;4996233;28;20108;-88
2022/08/04 04:42:53;;;;;;;11.07;4.70;;;;;;;-148.88;89.92;74579.00;5015896;28;20033;-90
2022/08/04 04:45:45;;;;;;;10.25;4.50;;;;;;;-148.88;89.87;74581.03;5016320;28;20022;-92
2022/08/04 04:48:43;;;;;;;9.10;4.50;;;;;;;-148.88;89.74;74581.03;5019359;28;20084;-86
2022/08/04 04:51:22;;;;;;;11.55;4.30;;;;;;;-148.88;90.09;74579.00;4995565;28;20112;-88
2022/08/04 04:54:03;;;;;;;13.63;4.90;;;;;;;-148.88;89.75;74579.00;5015495;28;20022;-88
2022/08/04 04:56:50;;;;;;;12.18;4.53;;;;;;;-148.88;89.59;74568.84;5014597;28;20029;-90
2022/08/04 04:59:23;;;;;;;10.07;4.50;;;;;;;-148.88;89.56;74568.84;5015510;28;20084;-87
2022/08/04 05:02:16;;;;;;;10.55;4.45;;;;;;;-148.88;89.76;74570.88;5015929;28;20037;-89
2022/08/04 05:05:15;;;;;;;11.45;4.20;;;;;;;-148.88;89.82;74570.88;5015981;28;20456;-90
2022/08/04 05:08:04;;;;;;;8.75;4.47;;;;;;;-148.88;89.53;74564.78;5017120;28;20034;-91
2022/08/04 05:10:53;;;;;;;12.55;4.00;;;;;;;-148.88;89.65;74564.78;5015890;28;20500;-86
2022/08/04 05:13:33;;;;;;;9.15;4.35;;;;;;;-148.88;89.85;74560.72;5013947;28;20026;-86
2022/08/04 05:16:29;;;;;;;11.35;4.22;;;;;;;-148.88;89.68;74566.81;5014714;28;20561;-85
2022/08/04 05:19:17;;;;;;;9.82;4.40;;;;;;;-148.88;89.95;74558.69;5012834;28;20503;-86
2022/08/04 05:21:50;;;;;;;8.40;4.25;;;;;;;-148.88;89.93;74546.50;5013918;28;20092;-85
2022/08/04 05:24:18;;;;;;;9.95;4.63;;;;;;;-148.88;89.73;74550.56;5013952;28;20400;-86
2022/08/04 05:26:48;;;;;;;11.43;4.57;;;;;;;-148.88;89.62;74546.50;5013799;28;20028;-86
2022/08/04 05:29:26;;;;;;;7.88;3.85;;;;;;;-148.88;89.07;74542.44;5015060;28;20022;-87
2022/08/04 05:31:54;;;;;;;7.60;4.22;;;;;;;-148.88;89.41;74528.22;5015044;28;20022;-86
2022/08/04 05:34:25;;;;;;;10.73;4.15;;;;;;;-148.88;89.21;74526.19;5013413;28;20018;-84
2022/08/04 05:36:54;;;;;;;9.30;4.32;;;;;;;-148.88;89.10;74522.13;5015132;28;20025;-85
2022/08/04 05:39:34;;;;;;;11.10;4.10;;;;;;;-148.88;89.04;74509.94;5014703;28;20022;-85
2022/08/04 05:42:10;;;;;;;10.35;4.32;;;;;;;-148.88;89.06;74505.88;5014838;28;20022;-83
2022/08/04 05:44:37;;;;;;;9.65;4.28;;;;;;;-148.88;88.90;74501.81;5015038;28;20387;-84
2022/08/04 05:47:04;;;;;;;8.00;4.38;;;;;;;-148.88;89.07;74495.75;5014579;28;20388;-86
2022/08/04 05:49:29;;;;;;;11.70;4.68;;;;;;;-148.88;89.30;74487.63;5014983;28;20029;-85
2022/08/04 05:51:59;;;;;;;9.63;4.80;;;;;;;-148.88;88.77;74491.69;5014662;28;20029;-85
2022/08/04 05:54:26;;;;;;;11.90;4.72;;;;;;;-148.88;89.24;74497.78;5014560;28;20026;-86
2022/08/04 05:56:53;;;;;;;8.70;4.75;;;;;;;-148.88;89.78;74497.78;5014420;28;20492;-86
2022/08/04 05:59:19;;;;;;;13.55;5.32;;;;;;;-148.88;90.32;74505.88;5013260;28;20476;-86
2022/08/04 06:01:46;;;;;;;9.48;4.97;;;;;;;-148.88;90.39;74499.81;5014560;28;20032;-88
2022/08/04 06:04:12;;;;;;;11.93;5.25;;;;;;;-148.88;90.09;74493.72;5014379;28;20113;-88
2022/08/04 06:06:39;;;;;;;12.90;5.05;;;;;;;-148.88;89.84;74477.47;5014318;28;20507;-87
2022/08/04 06:09:04;;;;;;;9.63;4.97;;;;;;;-148.88;89.19;74463.25;5014273;28;20037;-87
2022/08/04 06:11:31;;;;;;;12.20;4.95;;;;;;;-148.88;88.74;74442.94;5014282;28;20037;-87
2022/08/04 06:14:00;;;;;;;10.07;4.72;;;;;;;-148.88;88.80;74420.59;5013022;28;20447;-87
2022/08/04 06:16:31;;;;;;;14.15;5.10;;;;;;;-148.88;86.79;74398.28;5012964;28;20026;-87
2022/08/04 06:19:02;;;;;;;8.75;4.82;;;;;;;-148.88;86.74;74382.03;5013977;28;20025;-86
2022/08/04 06:21:29;;;;;;;12.07;4.85;;;;;;;-148.88;86.54;74373.91;5012944;28;20477;-87
2022/08/04 06:23:56;;;;;;;14.20;4.78;;;;;;;-148.88;85.55;74365.78;5014439;28;20030;-87
2022/08/04 06:26:30;;;;;;;9.15;4.88;;;;;;;-148.88;85.81;74347.50;5013665;28;20456;-87
2022/08/04 06:28:57;;;;;;;12.55;5.70;;;;;;;-148.88;85.51;74343.44;5013086;28;20470;-87
2022/08/04 06:34:08;;;;;;;8.23;3.67;;;;;;;-148.88;83.75;74321.13;5014452;28;20511;-88
2022/08/04 06:36:36;;;;;;;10.95;3.70;;;;;;;-148.88;83.56;74310.97;5012834;28;20092;-89
2022/08/04 06:39:03;;;;;;;7.72;4.05;;;;;;;-148.88;83.24;74308.94;5018562;28;20014;-89
2022/08/04 06:41:29;;;;;;;7.88;4.10;;;;;;;-148.88;83.23;74313.00;5023914;28;20036;-90
2022/08/04 06:44:00;;;;;;;9.05;4.40;;;;;;;-148.88;83.65;74310.97;5012790;28;20022;-87
2022/08/04 06:46:27;;;;;;;11.13;4.50;;;;;;;-148.88;83.90;74306.91;5014478;28;20022;-92
2022/08/04 06:48:54;;;;;;;10.43;4.05;;;;;;;-148.88;83.75;74300.81;5026206;23;20138;-88
2022/08/04 06:51:20;;;;;;;13.07;4.15;;;;;;;-148.88;84.77;74288.63;4993511;28;20030;-87
2022/08/04 06:53:46;;;;;;;7.57;3.78;;;;;;;-148.88;84.59;74274.41;4992535;28;20030;-85
2022/08/04 06:56:13;;;;;;;10.55;3.88;;;;;;;-148.88;82.85;74266.28;4994012;28;20477;-84
2022/08/04 06:58:40;;;;;;;10.65;4.60;;;;;;;-148.88;82.08;74250.03;4992288;28;20448;-85
2022/08/04 07:01:06;;;;;;;7.80;3.50;;;;;;;-148.88;83.35;74235.84;4992518;28;20547;-85
2022/08/04 07:03:32;;;;;;;9.27;3.72;;;;;;;-148.88;80.89;74217.56;4993690;28;20034;-86
2022/08/04 07:05:59;;;;;;;7.38;3.30;;;;;;;-148.88;80.23;74183.03;4993801;28;20029;-84
2022/08/04 07:08:24;;;;;;;10.32;3.67;;;;;;;-148.88;78.72;74158.69;4992454;28;20058;-87
2022/08/04 07:10:52;;;;;;;8.65;3.60;;;;;;;-148.88;73.67;74144.47;4993893;28;20109;-87
2022/08/04 07:13:19;;;;;;;6.60;3.00;;;;;;;-148.88;72.22;74105.88;4993795;28;20481;-86
2022/08/04 07:15:46;;;;;;;5.13;3.17;;;;;;;-148.88;74.04;74103.84;4993639;28;20070;-86
2022/08/04 07:18:11;;;;;;;5.68;3.05;;;;;;;-148.88;72.47;74085.59;4994437;28;20038;-86
2022/08/04 07:20:41;;;;;;;7.40;3.10;;;;;;;-148.88;70.97;74069.34;4994183;28;20022;-87
2022/08/04 07:23:16;;;;;;;6.45;3.00;;;;;;;-148.88;70.31;74059.19;4995070;28;20041;-87
2022/08/04 07:25:42;;;;;;;6.80;2.95;;;;;;;-148.88;71.52;74044.97;4993400;28;20369;-88
2022/08/04 07:28:08;;;;;;;7.25;2.95;;;;;;;-148.88;70.49;74022.66;4991940;28;20396;-86
2022/08/04 07:30:34;;;;;;;5.07;3.30;;;;;;;-148.88;69.41;74010.47;4993400;28;20026;-86
2022/08/04 07:33:00;;;;;;;8.07;3.08;;;;;;;-148.88;68.49;74002.34;4993238;28;20027;-86
2022/08/04 07:35:27;;;;;;;9.93;2.97;;;;;;;-148.88;68.46;73986.09;4993357;28;20018;-88
2022/08/04 07:37:52;;;;;;;7.63;3.20;;;;;;;-148.88;67.32;73969.84;4995008;28;20149;-87
2022/08/04 07:40:31;;;;;;;8.02;3.00;;;;;;;-148.88;68.55;73961.72;4995886;28;20121;-89
2022/08/04 07:42:58;;;;;;;6.90;3.13;;;;;;;-148.88;67.38;73955.66;4996248;28;20062;-87
2022/08/04 07:45:32;;;;;;;10.60;3.53;;;;;;;-148.88;68.88;73951.59;4997256;28;20591;-87
2022/08/04 07:47:58;;;;;;;6.03;3.00;;;;;;;-148.88;68.66;73933.31;4996705;28;20023;-88
2022/08/04 07:53:52;;;;;;;4.50;3.25;;;;;;;-148.88;68.16;73906.91;4996764;28;20122;-88
2022/08/04 07:56:18;;;;;;;5.38;2.72;;;;;;;-148.88;68.52;73900.81;4996804;28;20208;-86
2022/08/04 07:58:52;;;;;;;6.65;3.15;;;;;;;-148.88;67.25;73880.53;4996742;28;20030;-86
2022/08/04 08:01:18;;;;;;;7.35;3.00;;;;;;;-148.88;66.15;73864.28;4995539;28;20030;-86
2022/08/04 08:03:44;;;;;;;5.40;3.00;;;;;;;-148.88;66.11;73858.19;4996836;28;20053;-86
2022/08/04 08:06:10;;;;;;;7.18;3.17;;;;;;;-148.88;64.13;73831.81;4997068;28;20026;-87
2022/08/04 08:09:02;;;;;;;7.00;3.10;;;;;;;-148.88;63.84;73825.72;4996302;28;20041;-89
2022/08/04 08:11:27;;;;;;;4.60;2.95;;;;;;;-148.88;64.63;73809.47;4996521;28;20026;-87
2022/08/04 08:14:01;;;;;;;7.75;3.13;;;;;;;-148.88;63.38;73789.16;4995750;28;20026;-87
2022/08/04 08:16:32;;;;;;;5.60;2.97;;;;;;;-148.88;61.06;73774.94;4995990;28;20022;-86
2022/08/04 08:18:59;;;;;;;4.68;2.67;;;;;;;-148.88;59.96;73750.59;4995808;28;20049;-86
2022/08/04 08:21:25;;;;;;;7.22;3.10;;;;;;;-148.88;63.15;73738.41;4996672;28;20105;-87
2022/08/04 08:23:50;;;;;;;5.03;2.83;;;;;;;-148.88;62.36;73722.16;4996867;28;20555;-87
2022/08/04 08:26:16;;;;;;;7.03;2.83;;;;;;;-148.88;59.55;73701.88;4996600;28;20018;-87
2022/08/04 08:28:41;;;;;;;3.72;2.45;;;;;;;-148.88;59.22;73685.63;4996066;28;20026;-85
2022/08/04 08:31:09;;;;;;;5.07;2.78;;;;;;;-148.88;58.81;73665.31;4996571;28;20025;-88
2022/08/04 08:33:35;;;;;;;3.03;2.35;;;;;;;-148.88;59.25;73653.16;4995214;28;20022;-88
2022/08/04 08:36:10;;;;;;;4.70;2.90;;;;;;;-148.88;61.52;73634.88;4994894;28;20030;-86
2022/08/04 08:38:50;;;;;;;5.82;3.08;;;;;;;-148.88;58.72;73622.69;4995691;28;20026;-87
2022/08/04 08:41:30;;;;;;;4.97;2.65;;;;;;;-148.88;60.37;73606.44;4996581;28;20489;-88
2022/08/04 08:44:10;;;;;;;6.65;2.92;;;;;;;-148.88;57.07;73580.06;4995413;28;20066;-87
2022/08/04 08:46:50;;;;;;;6.30;2.90;;;;;;;-148.88;58.57;73569.91;4994448;28;20030;-85
2022/08/04 08:49:35;;;;;;;6.75;2.63;;;;;;;-148.88;54.14;73551.63;4995857;28;20125;-86
2022/08/04 08:52:34;;;;;;;8.88;2.90;;;;;;;-148.88;50.35;73523.22;4994659;28;20022;-85
2022/08/04 08:55:12;;;;;;;7.65;2.85;;;;;;;-148.88;51.10;73498.84;4995590;28;20432;-85
2022/08/04 08:58:09;;;;;;;4.72;2.58;;;;;;;-148.88;46.51;73494.78;4994294;28;20018;-84
2022/08/04 09:01:08;;;;;;;5.88;2.80;;;;;;;-148.88;47.71;73482.63;4995797;28;20456;-86
2022/08/04 09:04:15;;;;;;;18.20;3.53;;;;;;;-148.88;47.71;73446.06;4995379;28;20364;-85
2022/08/04 09:06:43;;;;;;;6.22;2.33;;;;;;;-148.88;49.92;73413.59;4994087;28;20509;-85
2022/08/04 09:09:40;;;;;;;6.10;2.88;;;;;;;-148.88;47.57;73399.38;4995603;28;20030;-84
2022/08/04 09:12:26;;;;;;;7.38;2.63;;;;;;;-148.88;47.00;73377.06;4994589;28;20117;-84
2022/08/04 09:14:59;;;;;;;9.05;2.92;;;;;;;-148.88;45.36;73348.63;4994727;28;20031;-85
2022/08/04 09:17:46;;;;;;;5.18;2.42;;;;;;;-148.88;44.00;73334.44;4995138;28;20079;-86
2022/08/04 09:20:36;;;;;;;7.43;2.95;;;;;;;-148.88;43.86;73312.09;4995777;28;20054;-85
2022/08/04 09:23:31;;;;;;;5.32;2.90;;;;;;;-148.88;44.13;73316.16;4994377;28;20109;-84
2022/08/04 09:26:23;;;;;;;4.38;2.40;;;;;;;-148.88;43.47;73303.97;4994878;28;20015;-84
2022/08/04 09:29:06;;;;;;;7.10;2.50;;;;;;;-148.88;44.16;73257.28;4994756;28;20032;-85
2022/08/04 09:31:45;;;;;;;8.73;2.50;;;;;;;-148.88;41.22;73243.06;4995013;28;20426;-86
2022/08/04 09:34:38;;;;;;;3.58;2.55;;;;;;;-148.88;37.77;73204.50;4995118;28;20499;-86
2022/08/04 09:37:16;;;;;;;2.90;2.58;;;;;;;-148.88;36.88;73170.00;4993266;28;20026;-85
2022/08/04 09:39:53;;;;;;;4.57;2.47;;;;;;;-148.88;37.37;73137.53;4995216;28;20088;-86
2022/08/04 09:42:40;;;;;;;5.00;2.33;;;;;;;-148.88;35.90;73103.00;4994986;28;20026;-86
2022/08/04 09:45:18;;;;;;;3.08;2.20;;;;;;;-148.88;36.36;73086.78;4994685;28;20022;-86
2022/08/04 09:47:53;;;;;;;4.85;2.38;;;;;;;-148.88;35.67;73070.53;4994272;28;20030;-86
2022/08/04 09:50:26;;;;;;;5.07;2.35;;;;;;;-148.88;35.76;73056.31;4994525;28;20109;-86
2022/08/04 09:52:51;;;;;;;5.50;2.25;;;;;;;-148.88;36.03;73052.28;4994613;28;20026;-86
2022/08/04 09:55:42;;;;;;;3.30;2.40;;;;;;;-148.88;35.17;73078.66;4994550;28;20030;-86
2022/08/04 09:58:45;;;;;;;6.35;2.80;;;;;;;-148.88;35.61;73029.94;4994611;28;20503;-86
2022/08/04 10:01:16;;;;;;;3.90;2.45;;;;;;;-148.88;35.35;73027.91;4994215;28;20040;-86
2022/08/04 10:03:47;;;;;;;5.25;2.35;;;;;;;-148.88;35.28;73017.75;4994691;28;20114;-85
2022/08/04 10:06:46;;;;;;;5.38;2.65;;;;;;;-148.88;36.50;72997.47;4994435;28;20532;-84
2022/08/04 10:09:27;;;;;;;6.22;2.80;;;;;;;-148.88;34.94;72989.34;4994111;28;20025;-85
2022/08/04 10:12:20;;;;;;;5.03;2.30;;;;;;;-148.88;35.50;72962.97;4996428;28;20079;-84
2022/08/04 10:15:02;;;;;;;3.90;2.10;;;;;;;-148.88;34.93;72971.06;4990593;28;20412;-86
2022/08/04 10:17:47;;;;;;;4.18;2.53;;;;;;;-148.88;34.46;72944.69;4994260;28;20053;-86
2022/08/04 10:20:45;;;;;;;11.10;3.00;;;;;;;-148.88;34.79;72908.16;4994513;28;20026;-88
2022/08/04 10:23:31;;;;;;;10.77;3.00;;;;;;;-148.88;34.78;72885.81;4994533;28;20428;-86
2022/08/04 10:26:21;;;;;;;2.88;2.05;;;;;;;-148.88;34.42;72845.22;4994437;28;20026;-88
2022/08/04 10:28:57;;;;;;;7.25;2.55;;;;;;;-148.88;33.85;72824.94;4994272;28;20026;-86
2022/08/04 10:31:27;;;;;;;5.68;2.40;;;;;;;-148.88;33.81;72816.81;4994369;28;20029;-85
2022/08/04 10:34:11;;;;;;;4.75;2.40;;;;;;;-148.88;33.91;72768.09;4994035;28;20038;-87
2022/08/04 10:36:48;;;;;;;4.53;2.00;;;;;;;-148.88;33.05;72786.38;5010471;28;20069;-87
2022/08/04 10:39:18;;;;;;;6.82;2.20;;;;;;;-148.88;32.72;72766.06;5013832;28;20022;-87
2022/08/04 10:42:07;;;;;;;2.80;1.92;;;;;;;-148.88;32.90;72792.47;5013811;28;20022;-85
2022/08/04 10:44:44;;;;;;;4.38;2.10;;;;;;;-148.88;31.62;72755.91;5013294;28;20117;-88
2022/08/04 10:47:21;;;;;;;3.60;2.10;;;;;;;-148.88;31.70;72772.16;5013626;28;20404;-87
2022/08/04 10:49:53;;;;;;;4.97;2.10;;;;;;;-148.88;31.53;72772.16;5013248;28;20064;-86
2022/08/04 10:52:42;;;;;;;3.25;2.13;;;;;;;-148.88;31.76;72764.03;5013699;28;20022;-83
2022/08/04 10:55:14;;;;;;;5.75;2.30;;;;;;;-148.88;32.01;72719.38;5013409;28;20032;-84
2022/08/04 10:57:54;;;;;;;5.25;2.05;;;;;;;-148.88;32.48;72701.13;5013364;28;20422;-85
2022/08/04 11:00:27;;;;;;;5.68;2.28;;;;;;;-148.88;31.28;72713.31;5012151;28;20044;-86
2022/08/04 11:03:20;;;;;;;6.25;1.98;;;;;;;-148.88;30.77;72684.88;5013105;28;20030;-86
2022/08/04 11:05:49;;;;;;;3.63;1.90;;;;;;;-148.88;30.78;72678.78;5013273;28;20108;-86
2022/08/04 11:08:20;;;;;;;4.15;2.13;;;;;;;-148.88;30.51;72666.63;5011877;28;20034;-85
2022/08/04 11:11:05;;;;;;;3.42;2.00;;;;;;;-148.88;30.12;72658.50;5013113;28;20034;-85
2022/08/04 11:13:43;;;;;;;3.75;2.05;;;;;;;-148.88;30.46;72654.44;5016189;28;20081;-87
2022/08/04 11:16:15;;;;;;;5.10;2.40;;;;;;;-148.88;30.25;72650.38;5017223;28;20030;-87
2022/08/04 11:18:52;;;;;;;10.05;2.53;;;;;;;-148.88;31.26;72634.16;5017263;28;20028;-87
2022/08/04 11:21:27;;;;;;;5.68;2.10;;;;;;;-148.88;29.81;72634.16;5016527;28;20038;-86
2022/08/04 11:24:04;;;;;;;3.92;1.90;;;;;;;-148.88;30.09;72605.72;5017045;28;20057;-86
2022/08/04 11:26:40;;;;;;;7.43;2.20;;;;;;;-148.88;29.64;72662.56;5015638;28;20018;-86
2022/08/04 11:29:27;;;;;;;3.70;1.88;;;;;;;-148.88;29.57;72617.91;5016907;28;20045;-86
2022/08/04 11:31:58;;;;;;;8.15;2.10;;;;;;;-148.88;30.04;72624.00;5016205;28;20132;-87
2022/08/04 11:34:26;;;;;;;5.53;2.20;;;;;;;-148.88;29.38;72617.91;5017105;28;20488;-87
2022/08/04 11:36:59;;;;;;;2.55;1.63;;;;;;;-148.88;29.23;72593.56;5016728;28;20101;-88
2022/08/04 11:39:36;;;;;;;4.55;1.70;;;;;;;-148.88;28.64;72587.47;5015762;28;20030;-87
2022/08/04 11:42:14;;;;;;;3.22;1.90;;;;;;;-148.88;28.18;72585.44;5016840;28;20504;-85
2022/08/04 11:44:48;;;;;;;8.80;2.63;;;;;;;-148.88;28.69;72557.03;5016000;28;20026;-86
2022/08/04 11:47:25;;;;;;;8.13;2.13;;;;;;;-148.88;28.55;72516.44;5016256;28;20032;-85
2022/08/04 11:50:12;;;;;;;3.45;1.77;;;;;;;-148.88;28.23;72542.81;5016663;28;20034;-86
2022/08/04 11:52:41;;;;;;;8.20;2.08;;;;;;;-148.88;27.94;72569.19;5017171;28;20025;-87
2022/08/04 11:55:13;;;;;;;11.80;2.40;;;;;;;-148.88;28.32;72617.91;5016834;28;20026;-87
2022/08/04 11:57:39;;;;;;;8.88;1.77;;;;;;;-148.88;28.24;72626.03;5017088;28;20025;-86
2022/08/04 12:00:11;;;;;;;4.88;1.63;;;;;;;-148.88;28.14;72609.78;5017270;28;20026;-86
2022/08/04 12:03:00;;;;;;;8.00;2.03;;;;;;;-148.88;28.11;72571.22;5016255;28;20085;-87
2022/08/04 12:05:37;;;;;;;5.72;1.70;;;;;;;-148.88;26.85;72552.97;5016577;28;20033;-86
2022/08/04 12:08:20;;;;;;;6.22;1.58;;;;;;;-148.88;26.65;72581.38;5016338;28;20121;-86